Flight Track Log - Related Links

Times and Time Zones

All times are in EDT time to prevent confusion due to time zone crossing. See the KLM1692 flight status page for this flight to view local times or setup timezone preferences in your user account.

Time Position Orientation Groundspeed Altitude Reporting Facility
EDT Latitude Longitude Course Direction KTS MPH feet Rate Location/Type
Sat 01:29:13 AM 38.8180 -9.1160 24° Northeast 181 208 1,800  Level FlightAware ADS-B
Sat 01:29:43 AM 38.8420 -9.1010 26° Northeast 177 204 3,200 2,111 Climbing FlightAware ADS-B
Sat 01:30:07 AM 38.8550 -9.0860 42° Northeast 193 222 3,700 1,800 Climbing FlightAware ADS-B
Sat 01:31:13 AM 38.9100 -9.0180 44° Northeast 272 313 5,900 2,452 Climbing FlightAware ADS-B
Sat 01:31:40 AM 38.9370 -8.9850 44° Northeast 273 314 7,500 3,429 Climbing FlightAware ADS-B
Sat 01:31:55 AM 38.9500 -8.9670 47° Northeast 278 320 8,300 3,067 Climbing FlightAware ADS-B
Sat 01:32:25 AM 38.9800 -8.9300 44° Northeast 289 333 9,800 2,160 Climbing FlightAware ADS-B
Sat 01:33:10 AM 39.0260 -8.8720 44° Northeast 338 389 11,000 2,047 Climbing FlightAware ADS-B
Sat 01:33:50 AM 39.0720 -8.8150 44° Northeast 354 407 12,700 2,475 Climbing FlightAware ADS-B
Sat 01:34:30 AM 39.1180 -8.7560 45° Northeast 367 422 14,300 2,475 Climbing FlightAware ADS-B
Sat 01:35:10 AM 39.1690 -8.6920 44° Northeast 379 436 16,000 2,625 Climbing FlightAware ADS-B
Sat 01:35:50 AM 39.2190 -8.6280 45° Northeast 380 437 17,800 2,475 Climbing FlightAware ADS-B
Sat 01:36:30 AM 39.2700 -8.5640 44° Northeast 391 450 19,300 2,104 Climbing FlightAware ADS-B
Sat 01:37:07 AM 39.3160 -8.5050 45° Northeast 403 464 20,500 2,025 Climbing FlightAware ADS-B
Sat 01:37:50 AM 39.3760 -8.4280 45° Northeast 413 475 22,000 2,096 Climbing FlightAware ADS-B
Sat 01:38:30 AM 39.4320 -8.3580 44° Northeast 421 484 23,400 1,976 Climbing FlightAware ADS-B
Sat 01:39:15 AM 39.4950 -8.2770 45° Northeast 432 497 24,800 1,765 Climbing FlightAware ADS-B
Sat 01:39:55 AM 39.5510 -8.2030 46° Northeast 441 507 25,900 1,650 Climbing FlightAware ADS-B
Sat 01:40:35 AM 39.6110 -8.1250 45° Northeast 449 517 27,000 1,725 Climbing FlightAware ADS-B
Sat 01:41:15 AM 39.6700 -8.0510 44° Northeast 453 521 28,200 1,650 Climbing FlightAware ADS-B
Sat 01:41:55 AM 39.7280 -7.9760 45° Northeast 456 525 29,200 1,500 Climbing FlightAware ADS-B
Sat 01:42:35 AM 39.7890 -7.8960 45° Northeast 460 529 30,200 1,350 Climbing FlightAware ADS-B
Sat 01:43:15 AM 39.8510 -7.8150 45° Northeast 469 540 31,000 1,125 Climbing FlightAware ADS-B
Sat 01:43:55 AM 39.9110 -7.7380 45° Northeast 475 547 31,700 1,200 Climbing FlightAware ADS-B
Sat 01:44:40 AM 39.9820 -7.6440 45° Northeast 478 550 32,700 1,271 Climbing FlightAware ADS-B
Sat 01:45:20 AM 40.0450 -7.5620 45° Northeast 481 554 33,500 1,200 Climbing FlightAware ADS-B
Sat 01:46:20 AM 40.1380 -7.4380 46° Northeast 483 556 34,700 1,140 Climbing FlightAware ADS-B
Sat 01:47:00 AM 40.2030 -7.3520 45° Northeast 485 558 35,400 1,341 Climbing FlightAware ADS-B
Sat 01:47:45 AM 40.2730 -7.2590 45° Northeast 475 547 36,600 1,553 Climbing FlightAware ADS-B
Sat 01:48:25 AM 40.3330 -7.1800 45° Northeast 463 533 37,600 1,050 Climbing FlightAware ADS-B
Sat 01:49:05 AM 40.3920 -7.1000 46° Northeast 463 533 38,000 300 Climbing FlightAware ADS-B
Sat 01:49:45 AM 40.4480 -7.0250 46° Northeast 465 535 38,000  Level FlightAware ADS-B
Sat 01:50:25 AM 40.5080 -6.9440 46° Northeast 467 537 38,000  Level FlightAware ADS-B
Sat 01:51:15 AM 40.5880 -6.8390 45° Northeast 469 540 38,000  Level FlightAware ADS-B
Sat 01:51:55 AM 40.6500 -6.7550 46° Northeast 470 541 38,000  Level FlightAware ADS-B
Sat 01:52:35 AM 40.7100 -6.6720 46° Northeast 471 542 38,000  Level FlightAware ADS-B
Sat 01:53:20 AM 40.7790 -6.5800 45° Northeast 469 540 38,000  Level FlightAware ADS-B
Sat 01:54:00 AM 40.8370 -6.5000 46° Northeast 467 537 38,000  Level FlightAware ADS-B
Sat 01:54:45 AM 40.9030 -6.4090 46° Northeast 466 536 38,000  Level FlightAware ADS-B
Sat 01:55:27 AM 40.9720 -6.3190 45° Northeast 465 535 38,000  Level FlightAware ADS-B
Sat 01:56:03 AM 41.0370 -6.2630 33° Northeast 465 535 38,000  Level FlightAware ADS-B
Sat 01:56:51 AM 41.1250 -6.1960 30° Northeast 466 536 38,000  Level FlightAware ADS-B
Sat 01:57:29 AM 41.1970 -6.1410 30° Northeast 465 535 38,000  Level FlightAware ADS-B
Sat 01:58:07 AM 41.2660 -6.0880 30° Northeast 465 535 38,000  Level FlightAware ADS-B
Sat 01:58:49 AM 41.3450 -6.0280 30° Northeast 466 536 38,000  Level FlightAware ADS-B
Sat 01:59:29 AM 41.4200 -5.9700 30° Northeast 466 536 38,000  Level FlightAware ADS-B
Sat 01:59:55 AM 41.4690 -5.9310 31° Northeast 466 536 38,000  Level FlightAware ADS-B
Sat 02:00:48 AM 41.5640 -5.8600 29° Northeast 465 535 38,000  Level FlightAware ADS-B
Sat 02:01:33 AM 41.6510 -5.7920 30° Northeast 464 534 38,000  Level FlightAware ADS-B
Sat 02:02:18 AM 41.7350 -5.7270 30° Northeast 463 533 38,000  Level FlightAware ADS-B
Sat 02:02:58 AM 41.8070 -5.6690 31° Northeast 463 533 38,000  Level FlightAware ADS-B
Sat 02:03:43 AM 41.8920 -5.6040 30° Northeast 462 532 38,000  Level FlightAware ADS-B
Sat 02:04:23 AM 41.9650 -5.5460 31° Northeast 462 532 38,000  Level FlightAware ADS-B
Sat 02:05:03 AM 42.0390 -5.4880 30° Northeast 462 532 38,000  Level FlightAware ADS-B
Sat 02:05:38 AM 42.1030 -5.4370 31° Northeast 461 531 38,000  Level FlightAware ADS-B
Sat 02:06:23 AM 42.1870 -5.3720 30° Northeast 461 531 38,000  Level FlightAware ADS-B
Sat 02:07:03 AM 42.2600 -5.3130 31° Northeast 459 528 38,000  Level FlightAware ADS-B
Sat 02:07:38 AM 42.3230 -5.2640 30° Northeast 459 528 38,000  Level FlightAware ADS-B
Sat 02:08:18 AM 42.3960 -5.2060 30° Northeast 459 528 38,000  Level FlightAware ADS-B
Sat 02:09:02 AM 42.4780 -5.1410 30° Northeast 459 528 38,000  Level FlightAware ADS-B
Sat 02:09:42 AM 42.5500 -5.0830 31° Northeast 459 528 38,000  Level FlightAware ADS-B
Sat 02:10:27 AM 42.6340 -5.0160 30° Northeast 460 529 38,000  Level FlightAware ADS-B
Sat 02:11:02 AM 42.7000 -4.9700 27° Northeast 457 526 38,000  Level FlightAware ADS-B
Sat 02:11:53 AM 42.7980 -4.9120 23° Northeast 456 525 38,000  Level FlightAware ADS-B
Sat 02:12:33 AM 42.8730 -4.8670 24° Northeast 456 525 38,000  Level FlightAware ADS-B
Sat 02:13:13 AM 42.9500 -4.8230 23° Northeast 455 524 38,000  Level FlightAware ADS-B
Sat 02:13:57 AM 43.0380 -4.7700 24° Northeast 454 522 38,000  Level FlightAware ADS-B
Sat 02:14:37 AM 43.1150 -4.7250 23° Northeast 452 520 38,000  Level FlightAware ADS-B
Sat 02:15:22 AM 43.1940 -4.6780 23° Northeast 451 519 38,000  Level FlightAware ADS-B
Sat 02:16:02 AM 43.2780 -4.6280 23° Northeast 451 519 38,000  Level FlightAware ADS-B
Sat 02:16:47 AM 43.3640 -4.5760 24° Northeast 450 518 38,000  Level FlightAware ADS-B
Sat 02:17:27 AM 43.4410 -4.5310 23° Northeast 450 518 38,000  Level FlightAware ADS-B
Sat 02:18:07 AM 43.5150 -4.4850 24° Northeast 450 518 38,000  Level FlightAware ADS-B
Sat 02:18:52 AM 43.6020 -4.4330 23° Northeast 451 519 38,000  Level FlightAware ADS-B
Sat 02:19:27 AM 43.6670 -4.3940 23° Northeast 451 519 38,000  Level FlightAware ADS-B
Sat 02:20:07 AM 43.7430 -4.3480 24° Northeast 450 518 38,000  Level FlightAware ADS-B
Sat 02:20:47 AM 43.8220 -4.3000 24° Northeast 450 518 38,000  Level FlightAware ADS-B
Sat 02:21:37 AM 43.9150 -4.2430 24° Northeast 449 517 38,000  Level FlightAware ADS-B
Sat 02:22:18 AM 43.9930 -4.1950 24° Northeast 449 517 38,000  Level FlightAware ADS-B
Sat 02:23:40 AM 44.1380 -4.0770 30° Northeast 451 519 38,000  Level FlightAware ADS-B
Sat 02:24:20 AM 44.2120 -4.0110 33° Northeast 451 519 38,000  Level FlightAware ADS-B
Sat 02:25:00 AM 44.2810 -3.9480 33° Northeast 452 520 38,000  Level FlightAware ADS-B
Sat 02:25:55 AM 44.3770 -3.8620 33° Northeast 452 520 38,000  Level FlightAware ADS-B
Sat 02:26:35 AM 44.4490 -3.7970 33° Northeast 454 522 38,000  Level FlightAware ADS-B
Sat 02:27:20 AM 44.5260 -3.7260 33° Northeast 454 522 38,000 71 Level FlightAware ADS-B
Sat 02:28:00 AM 44.5970 -3.6620 33° Northeast 461 531 38,100 505 Climbing FlightAware ADS-B
Sat 02:28:55 AM 44.6980 -3.5710 33° Northeast 459 528 38,800 800 Climbing FlightAware ADS-B
Sat 02:29:30 AM 44.7610 -3.5120 34° Northeast 458 527 39,300 786 Climbing FlightAware ADS-B
Sat 02:30:19 AM 44.8400 -3.4390 33° Northeast 447 514 39,900 472 Climbing FlightAware ADS-B
Sat 02:30:59 AM 44.9160 -3.3700 33° Northeast 448 516 40,000 59 Climbing FlightAware ADS-B
Sat 02:32:00 AM 45.0170 -3.2770 33° Northeast 453 521 40,000  Level FlightAware ADS-B
Sat 02:32:45 AM 45.0990 -3.2010 33° Northeast 452 520 40,000  Level FlightAware ADS-B
Sat 02:33:20 AM 45.1610 -3.1420 34° Northeast 451 519 40,000  Level FlightAware ADS-B
Sat 02:34:10 AM 45.2510 -3.0590 33° Northeast 451 519 40,000  Level FlightAware ADS-B
Sat 02:34:50 AM 45.3210 -2.9940 33° Northeast 451 519 40,000  Level FlightAware ADS-B
Sat 02:35:39 AM 45.4030 -2.9150 34° Northeast 444 511 40,000  Level FlightAware ADS-B
Sat 02:36:19 AM 45.4730 -2.8490 33° Northeast 443 510 40,000  Level FlightAware ADS-B
Sat 02:37:00 AM 45.5450 -2.7810 33° Northeast 450 518 40,000  Level FlightAware ADS-B
Sat 02:37:43 AM 45.6190 -2.7120 33° Northeast 449 517 40,000  Level FlightAware ADS-B
Sat 02:38:26 AM 45.6940 -2.6410 33° Northeast 449 517 40,000  Level FlightAware ADS-B
Sat 02:39:09 AM 45.7690 -2.5680 34° Northeast 449 517 40,000  Level FlightAware ADS-B
Sat 02:39:49 AM 45.8380 -2.5020 34° Northeast 449 517 40,000  Level FlightAware ADS-B
Sat 02:40:39 AM 45.9180 -2.4240 34° Northeast 448 516 40,000  Level FlightAware ADS-B
Sat 02:41:24 AM 46.0030 -2.3420 34° Northeast 449 517 40,000  Level FlightAware ADS-B
Sat 02:42:04 AM 46.0730 -2.2750 34° Northeast 450 518 40,000  Level FlightAware ADS-B
Sat 02:42:42 AM 46.1380 -2.2120 34° Northeast 451 519 40,000  Level FlightAware ADS-B
Sat 02:43:22 AM 46.2070 -2.1440 34° Northeast 452 520 40,000  Level FlightAware ADS-B
Sat 02:44:04 AM 46.2800 -2.0730 34° Northeast 452 520 40,000  Level FlightAware ADS-B
Sat 02:44:46 AM 46.3530 -2.0010 34° Northeast 454 522 40,000  Level FlightAware ADS-B
Sat 02:45:22 AM 46.4160 -1.9400 34° Northeast 454 522 40,000  Level FlightAware ADS-B
Sat 02:46:06 AM 46.4920 -1.8650 34° Northeast 453 521 40,000  Level FlightAware ADS-B
Sat 02:46:42 AM 46.5540 -1.8050 34° Northeast 454 522 40,000  Level FlightAware ADS-B
Sat 02:47:23 AM 46.6250 -1.7330 35° Northeast 453 521 40,000  Level FlightAware ADS-B
Sat 02:48:06 AM 46.6990 -1.6590 34° Northeast 452 520 40,000  Level FlightAware ADS-B
Sat 02:48:40 AM 46.7580 -1.6000 34° Northeast 451 519 40,000  Level FlightAware ADS-B
Sat 02:49:23 AM 46.8330 -1.5260 34° Northeast 449 517 40,000  Level FlightAware ADS-B
Sat 02:50:03 AM 46.9010 -1.4570 35° Northeast 447 514 40,000  Level FlightAware ADS-B
Sat 02:50:38 AM 46.9590 -1.3990 34° Northeast 446 513 40,000  Level FlightAware ADS-B
Sat 02:51:19 AM 47.0290 -1.3270 35° Northeast 444 511 40,000  Level FlightAware ADS-B
Sat 02:52:01 AM 47.1000 -1.2550 35° Northeast 444 511 40,000  Level FlightAware ADS-B
Sat 02:52:45 AM 47.1740 -1.1800 35° Northeast 444 511 40,000  Level FlightAware ADS-B
Sat 02:53:25 AM 47.2430 -1.1110 34° Northeast 446 513 40,000  Level FlightAware ADS-B
Sat 02:54:09 AM 47.3180 -1.0340 35° Northeast 448 516 40,000  Level FlightAware ADS-B
Sat 02:54:49 AM 47.3840 -0.9610 37° Northeast 455 524 40,000  Level FlightAware ADS-B
Sat 02:55:18 AM 47.4290 -0.9040 41° Northeast 455 524 40,000  Level FlightAware ADS-B
Sat 02:56:02 AM 47.4990 -0.8140 41° Northeast 454 522 40,000  Level FlightAware ADS-B
Sat 02:56:42 AM 47.5630 -0.7310 41° Northeast 452 520 40,000  Level FlightAware ADS-B
Sat 02:57:26 AM 47.6330 -0.6420 41° Northeast 451 519 40,000  Level FlightAware ADS-B
Sat 02:58:08 AM 47.6990 -0.5570 41° Northeast 450 518 40,000  Level FlightAware ADS-B
Sat 02:58:48 AM 47.7600 -0.4760 42° Northeast 447 514 40,000  Level FlightAware ADS-B
Sat 02:59:30 AM 47.8240 -0.3950 40° Northeast 445 512 40,000  Level FlightAware ADS-B
Sat 02:59:54 AM 47.8640 -0.3430 41° Northeast 444 511 40,000  Level FlightAware ADS-B
Sat 03:00:52 AM 47.9530 -0.2260 41° Northeast 442 509 40,000  Level FlightAware ADS-B
Sat 03:01:30 AM 48.0100 -0.1510 41° Northeast 443 510 40,000  Level FlightAware ADS-B
Sat 03:02:14 AM 48.0790 -0.0600 41° Northeast 449 517 40,000  Level FlightAware ADS-B
Sat 03:02:58 AM 48.1480 0.0290 41° Northeast 451 519 40,000  Level FlightAware ADS-B
Sat 03:03:40 AM 48.2140 0.1180 42° Northeast 449 517 40,000  Level FlightAware ADS-B
Sat 03:04:20 AM 48.2750 0.2010 42° Northeast 448 516 40,000  Level FlightAware ADS-B
Sat 03:05:04 AM 48.3430 0.2920 42° Northeast 446 513 40,000  Level FlightAware ADS-B
Sat 03:05:36 AM 48.3934 0.3595 42° Northeast 446 513 40,000  Level FlightAware UK
Sat 03:05:46 AM 48.4080 0.3790 42° Northeast 446 513 40,000  Level FlightAware ADS-B
Sat 03:06:28 AM 48.4730 0.4660 42° Northeast 446 513 40,000  Level FlightAware ADS-B
Sat 03:07:08 AM 48.5350 0.5490 42° Northeast 446 513 40,000  Level FlightAware ADS-B
Sat 03:07:50 AM 48.5990 0.6360 42° Northeast 447 514 40,000  Level FlightAware ADS-B
Sat 03:08:28 AM 48.6570 0.7130 42° Northeast 448 516 40,000  Level FlightAware ADS-B
Sat 03:08:30 AM 48.6610 0.7210 42° Northeast 444 511 40,000  Level FlightAware UK
Sat 03:09:06 AM 48.7168 0.7971 42° Northeast 444 511 40,000  Level FlightAware UK
Sat 03:09:08 AM 48.7170 0.7950 42° Northeast 448 516 40,000  Level FlightAware ADS-B
Sat 03:09:42 AM 48.7722 0.8731 42° Northeast 444 511 40,000  Level FlightAware UK
Sat 03:09:50 AM 48.7820 0.8860 42° Northeast 450 518 40,000  Level FlightAware ADS-B
Sat 03:10:31 AM 48.8460 0.9740 42° Northeast 452 520 40,000  Level FlightAware ADS-B
Sat 03:11:18 AM 48.9193 1.0798 42° Northeast 444 511 40,000  Level FlightAware UK
Sat 03:11:20 AM 48.9200 1.0780 42° Northeast 454 522 40,000  Level FlightAware ADS-B
Sat 03:12:05 AM 48.9900 1.1780 43° Northeast 456 525 40,000  Level FlightAware ADS-B
Sat 03:12:45 AM 49.0540 1.2680 43° Northeast 459 528 40,000  Level FlightAware ADS-B
Sat 03:13:23 AM 49.1160 1.3390 37° Northeast 454 522 40,000  Level FlightAware ADS-B
Sat 03:14:09 AM 49.1980 1.4240 34° Northeast 457 526 40,000  Level FlightAware ADS-B
Sat 03:14:43 AM 49.2571 1.4878 34° Northeast 452 520 40,000  Level FlightAware UK
Sat 03:14:49 AM 49.2670 1.4950 34° Northeast 456 525 40,000  Level FlightAware ADS-B
Sat 03:15:31 AM 49.3390 1.5710 35° Northeast 455 524 40,000  Level FlightAware ADS-B
Sat 03:16:05 AM 49.4000 1.6350 34° Northeast 453 521 40,000  Level FlightAware ADS-B
Sat 03:16:51 AM 49.4790 1.7180 34° Northeast 453 521 40,000  Level FlightAware ADS-B
Sat 03:17:31 AM 49.5470 1.7890 34° Northeast 454 522 40,000  Level FlightAware ADS-B
Sat 03:18:03 AM 49.6040 1.8470 33° Northeast 450 518 40,000  Level FlightAware ADS-B
Sat 03:18:37 AM 49.6655 1.9043 33° Northeast 456 525 40,000  Level FlightAware UK
Sat 03:18:51 AM 49.6890 1.9230 33° Northeast 445 512 40,000  Level FlightAware ADS-B
Sat 03:19:25 AM 49.7507 1.9811 33° Northeast 452 520 40,000  Level FlightAware UK
Sat 03:19:31 AM 49.7560 1.9840 33° Northeast 443 510 40,000  Level FlightAware ADS-B
Sat 03:20:11 AM 49.8310 2.0500 30° Northeast 443 510 40,000  Level FlightAware ADS-B
Sat 03:20:55 AM 49.9103 2.1249 30° Northeast 454 522 40,000  Level FlightAware UK
Sat 03:20:55 AM 49.9080 2.1210 30° Northeast 443 510 40,000  Level FlightAware ADS-B
Sat 03:21:35 AM 49.9810 2.1870 30° Northeast 443 510 40,000  Level FlightAware ADS-B
Sat 03:21:37 AM 49.9845 2.1924 30° Northeast 454 522 40,000  Level FlightAware UK
Sat 03:22:07 AM 50.0373 2.2413 30° Northeast 454 522 40,000  Level FlightAware UK
Sat 03:22:19 AM 50.0550 2.2550 30° Northeast 442 509 40,000  Level FlightAware ADS-B
Sat 03:22:53 AM 50.1170 2.3140 31° Northeast 441 507 40,000  Level FlightAware ADS-B
Sat 03:23:37 AM 50.1940 2.3860 31° Northeast 440 506 40,000  Level FlightAware ADS-B
Sat 03:24:19 AM 50.2630 2.4490 30° Northeast 438 504 40,000  Level FlightAware ADS-B
Sat 03:25:01 AM 50.3410 2.5210 30° Northeast 436 502 40,000  Level FlightAware ADS-B
Sat 03:25:41 AM 50.4100 2.5850 31° Northeast 434 499 40,000 -429 Level FlightAware ADS-B
Sat 03:26:25 AM 50.4840 2.6550 31° Northeast 438 504 39,400 -857 Descending FlightAware ADS-B
Sat 03:27:05 AM 50.5520 2.7190 31° Northeast 442 509 38,800 -947 Descending FlightAware ADS-B
Sat 03:27:41 AM 50.6170 2.7800 31° Northeast 439 505 38,200 -1,038 Descending FlightAware ADS-B
Sat 03:27:57 AM 50.6469 2.8083 31° Northeast 439 505 37,900 -1,222 Descending FlightAware ADS-B
Sat 03:28:35 AM 50.7126 2.8712 31° Northeast 438 504 37,100 -2,257 Descending FlightAware ADS-B
Sat 03:29:46 AM 50.8320 2.9870 31° Northeast 438 504 33,800 -2,817 Descending FlightAware ADS-B
Sat 03:30:30 AM 50.9080 3.0590 31° Northeast 439 505 31,700 -3,040 Descending FlightAware ADS-B
Sat 03:31:01 AM 50.9656 3.1152 31° Northeast 442 509 30,000 -3,086 Descending FlightAware UK
Sat 03:31:05 AM 50.9700 3.1170 31° Northeast 440 506 29,900 -2,571 Descending FlightAware ADS-B
Sat 03:31:43 AM 51.0391 3.1858 31° Northeast 434 499 28,200 -2,571 Descending FlightAware UK
Sat 03:31:47 AM 51.0440 3.1900 31° Northeast 431 496 28,100 -2,192 Descending FlightAware ADS-B
Sat 03:32:35 AM 51.1220 3.2650 31° Northeast 420 483 26,300 -2,488 Descending FlightAware ADS-B
Sat 03:33:09 AM 51.1810 3.3230 31° Northeast 416 479 24,700 -3,000 Descending FlightAware ADS-B
Sat 03:33:13 AM 51.1887 3.3306 31° Northeast 416 479 24,400 -913 Descending FlightAware UK
Sat 03:33:55 AM 51.2510 3.3920 32° Northeast 391 450 24,000 -282 Descending FlightAware ADS-B
Sat 03:34:38 AM 51.3190 3.4580 31° Northeast 375 432 24,000 -674 Level FlightAware ADS-B
Sat 03:35:24 AM 51.3870 3.5240 31° Northeast 378 435 23,000 -2,182 Descending FlightAware ADS-B
Sat 03:36:06 AM 51.4500 3.5890 33° Northeast 393 452 20,800 -3,162 Descending FlightAware ADS-B
Sat 03:36:38 AM 51.4980 3.6450 36° Northeast 401 461 19,100 -2,189 Descending FlightAware ADS-B
Sat 03:37:20 AM 51.5570 3.7140 36° Northeast 375 432 18,100 -1,814 Descending FlightAware ADS-B
Sat 03:38:04 AM 51.6180 3.7850 36° Northeast 367 422 16,500 -2,325 Descending FlightAware ADS-B
Sat 03:38:40 AM 51.6690 3.8440 36° Northeast 364 419 15,000 -2,189 Descending FlightAware ADS-B
Sat 03:39:18 AM 51.7160 3.9000 36° Northeast 354 407 13,800 -2,174 Descending FlightAware ADS-B
Sat 03:39:49 AM 51.7622 3.9551 36° Northeast 352 405 12,500 -2,286 Descending FlightAware UK
Sat 03:40:00 AM 51.7750 3.9690 36° Northeast 348 400 12,200 -1,111 Descending FlightAware ADS-B
Sat 03:40:43 AM 51.8297 4.0346 36° Northeast 322 371 11,500 -955 Descending FlightAware UK
Sat 03:40:44 AM 51.8290 4.0330 36° Northeast 318 366 11,500 -1,674 Level FlightAware ADS-B
Sat 03:41:26 AM 51.8780 4.0910 36° Northeast 310 357 10,300 -1,552 Descending FlightAware ADS-B
Sat 03:41:42 AM 51.8970 4.1130 36° Northeast 303 349 10,000 -1,000 Descending FlightAware ADS-B
Sat 03:42:08 AM 51.9240 4.1470 38° Northeast 286 329 9,600 -1,071 Descending FlightAware ADS-B
Sat 03:42:38 AM 51.9530 4.1910 43° Northeast 277 319 9,000 -960 Descending FlightAware ADS-B
Sat 03:42:58 AM 51.9710 4.2170 42° Northeast 268 308 8,800 -571 Descending FlightAware ADS-B
Sat 03:43:20 AM 51.9840 4.2530 60° Northeast 252 290 8,600 -714 Descending FlightAware ADS-B
Sat 03:43:40 AM 51.9850 4.2910 88° East 247 284 8,300 -875 Descending FlightAware ADS-B
Sat 03:44:08 AM 51.9840 4.3390 92° East 235 270 7,900 -1,241 Descending FlightAware ADS-B
Sat 03:44:38 AM 51.9840 4.3930 90° East 230 265 7,100 -1,629 Descending FlightAware ADS-B
Sat 03:45:18 AM 51.9830 4.4640 91° East 230 265 6,000 -1,565 Descending FlightAware ADS-B
Sat 03:45:24 AM 51.9830 4.4740 90° East 228 262 5,900 -1,000 Descending FlightAware ADS-B
Sat 03:45:54 AM 51.9830 4.5250 90° East 228 262 5,400 -960 Descending FlightAware ADS-B
Sat 03:46:14 AM 51.9830 4.5590 90° East 226 260 5,100 -500 Descending FlightAware ADS-B
Sat 03:46:42 AM 51.9830 4.6040 90° East 219 252 5,000 -265 Descending FlightAware ADS-B
Sat 03:47:22 AM 51.9930 4.6630 75° East 211 243 4,800 -536 Descending FlightAware ADS-B
Sat 03:47:38 AM 52.0060 4.6760 32° Northeast 205 236 4,500 -900 Descending FlightAware ADS-B
Sat 03:48:02 AM 52.0250 4.6920 27° Northeast 198 228 4,200 -714 Descending FlightAware ADS-B
Sat 03:48:20 AM 52.0400 4.7060 30° Northeast 196 226 4,000 -600 Descending FlightAware ADS-B
Sat 03:48:42 AM 52.0570 4.7210 28° Northeast 194 223 3,800 -625 Descending FlightAware ADS-B
Sat 03:49:08 AM 52.0780 4.7390 28° Northeast 195 224 3,500 -667 Descending FlightAware ADS-B
Sat 03:49:36 AM 52.1010 4.7550 23° Northeast 195 224 3,200 -778 Descending FlightAware ADS-B
Sat 03:50:02 AM 52.1250 4.7610 North 198 228 2,800 -818 Descending FlightAware ADS-B
Sat 03:50:20 AM 52.1420 4.7640 North 194 223 2,600 -947 Descending FlightAware ADS-B
Sat 03:50:40 AM 52.1580 4.7650 North 195 224 2,200 -1,174 Descending FlightAware ADS-B
Sat 03:51:06 AM 52.1810 4.7670 North 178 205 1,700 -1,154 Descending FlightAware ADS-B
Sat 03:51:32 AM 52.2040 4.7690 North 170 196 1,200 -964 Descending FlightAware ADS-B
Sat 03:52:02 AM 52.2270 4.7710 North 157 181 800 -857 Descending FlightAware ADS-B
Sat 03:52:28 AM 52.2460 4.7730 North 157 181 400 -923 Descending FlightAware ADS-B
Sat 03:52:54 AM 52.2650 4.7750 North 154 177 -923 Descending FlightAware ADS-B
Sat 03:53:22 AM 52.2850 4.7770 North 150 173  Level FlightAware ADS-B
Sat 03:53:49 AM 52.3000 4.7780 North 149 171  Level FlightAware ADS-B
Sat 03:56:00 AM 52.3086 4.7639 315° West  Level Estimated
Sat 03:57:00 AM 52.3086 4.7639 348° North  Level Estimated
Sat 03:58:00 AM 52.3086 4.7639 348° North  Level Estimated
Sat 03:59:00 AM 52.3086 4.7639 348° North  Level Estimated
Sat 04:00:00 AM 52.3086 4.7639 348° North  Level Estimated
Sat 04:01:00 AM 52.3086 4.7639 348° North  Level Estimated
Sat 04:02:00 AM 52.3086 4.7639 348° North  Level Estimated
Sat 04:03:00 AM 52.3086 4.7639 348° North  Level Estimated
Sat 04:04:00 AM 52.3086 4.7639 348° North  Level Estimated

Login

Don't have an account? Register now (free) for customized features, flight alerts, and more!